Time;durP1;ratioP1;P1;durP2;ratioP2;P2;SDS_P1;SDS_P2;PMS_P1;PMS_P2;Temp;Humidity;BMP_temperature;BMP_pressure;BME280_temperature;BME280_humidity;BME280_pressure;Samples;Min_cycle;Max_cycle;Signal;HPM_P1;HPM_P2
2024/03/24 00:00:09;;;;;;;11.55;7.05;;;435.70;1382.40;;;;;;5008623;28;20010;-75
2024/03/24 00:02:36;;;;;;;12.43;7.18;;;435.70;1408.00;;;;;;4991116;28;20042;-76
2024/03/24 00:05:02;;;;;;;22.73;14.70;;;435.60;1408.00;;;;;;5011933;28;20542;-75
2024/03/24 00:07:27;;;;;;;20.05;14.80;;;435.60;1408.00;;;;;;5012867;28;20030;-76
2024/03/24 00:09:54;;;;;;;35.40;24.30;;;435.50;1408.00;;;;;;5012555;28;20360;-75
2024/03/24 00:12:20;;;;;;;39.25;24.88;;;435.40;1433.60;;;;;;5012652;28;20022;-75
2024/03/24 00:14:46;;;;;;;11.45;8.82;;;435.40;1408.00;;;;;;5012442;28;20491;-75
2024/03/24 00:17:12;;;;;;;91.43;56.65;;;435.40;1433.60;;;;;;5012539;28;20101;-75
2024/03/24 00:19:38;;;;;;;18.52;12.38;;;435.30;1433.60;;;;;;5012713;28;20619;-75
2024/03/24 00:22:04;;;;;;;12.30;8.57;;;435.30;1433.60;;;;;;5002055;28;20027;-75
2024/03/24 00:24:30;;;;;;;13.48;9.65;;;435.30;1433.60;;;;;;5010007;28;20169;-76
2024/03/24 00:26:55;;;;;;;18.67;12.50;;;435.30;1433.60;;;;;;4994414;28;20037;-76
2024/03/24 00:29:21;;;;;;;32.53;17.58;;;435.20;1459.20;;;;;;5011699;28;20036;-75
2024/03/24 00:31:47;;;;;;;27.58;8.68;;;410.30;1510.40;;;;;;5012347;28;20121;-75
2024/03/24 00:34:13;;;;;;;27.30;9.90;;;409.60;1689.60;;;;;;5011378;28;20026;-75
2024/03/24 00:36:39;;;;;;;21.45;9.13;;;384.60;1740.80;;;;;;5002434;28;20026;-74
2024/03/24 00:39:07;;;;;;;14.48;6.25;;;384.10;1792.00;;;;;;5005865;28;20555;-75
2024/03/24 00:41:33;;;;;;;11.45;5.03;;;359.20;1817.60;;;;;;5005703;28;20049;-76
2024/03/24 00:43:59;;;;;;;17.27;5.88;;;359.00;1843.20;;;;;;4993646;28;20133;-74
2024/03/24 00:46:25;;;;;;;15.85;7.20;;;358.80;1868.80;;;;;;5012326;28;20032;-75
2024/03/24 00:48:52;;;;;;;7.82;3.03;;;358.70;1868.80;;;;;;5011685;28;20057;-75
2024/03/24 00:51:19;;;;;;;10.98;3.35;;;358.40;1920.00;;;;;;5012010;28;20033;-75
2024/03/24 00:53:45;;;;;;;6.22;2.47;;;333.70;1920.00;;;;;;5012039;28;20097;-74
2024/03/24 00:56:11;;;;;;;14.82;3.13;;;333.50;1945.60;;;;;;5011888;28;20500;-75
2024/03/24 00:58:40;;;;;;;15.63;3.78;;;333.40;1971.20;;;;;;5011977;28;20053;-75
2024/03/24 01:01:06;;;;;;;8.15;3.28;;;333.20;1971.20;;;;;;5011067;28;20030;-77
2024/03/24 01:03:33;;;;;;;4.68;2.17;;;333.00;1996.80;;;;;;5011232;28;20117;-74
2024/03/24 01:05:59;;;;;;;9.07;3.47;;;332.80;2022.40;;;;;;5011621;28;20064;-75
2024/03/24 01:08:25;;;;;;;8.45;2.75;;;308.10;2022.40;;;;;;5012202;28;20053;-74
2024/03/24 01:10:51;;;;;;;8.60;3.17;;;307.80;2048.00;;;;;;5011538;28;20476;-74
2024/03/24 01:13:17;;;;;;;5.38;2.05;;;307.80;2073.60;;;;;;5011434;28;20030;-74
2024/03/24 01:15:46;;;;;;;3.53;1.92;;;307.70;2073.60;;;;;;5011099;28;20065;-75
2024/03/24 01:18:12;;;;;;;7.55;3.88;;;307.70;2073.60;;;;;;5011445;28;20018;-75
2024/03/24 01:20:38;;;;;;;4.88;2.70;;;307.80;2073.60;;;;;;5011577;28;20091;-75
2024/03/24 01:23:04;;;;;;;10.35;3.60;;;307.70;2073.60;;;;;;4993680;28;20029;-74
2024/03/24 01:25:31;;;;;;;4.50;2.15;;;307.70;2099.20;;;;;;5011224;28;20025;-75
2024/03/24 01:27:57;;;;;;;4.40;2.40;;;307.70;2099.20;;;;;;5011200;28;20021;-73
2024/03/24 01:30:24;;;;;;;23.90;14.13;;;307.80;2073.60;;;;;;5010771;28;20065;-74
2024/03/24 01:32:50;;;;;;;14.52;3.47;;;308.00;2073.60;;;;;;5011210;28;20384;-75
2024/03/24 01:35:16;;;;;;;6.75;2.45;;;308.00;2073.60;;;;;;5011312;28;20022;-75
2024/03/24 01:37:42;;;;;;;8.57;7.78;;;308.00;2073.60;;;;;;5010860;28;20017;-74
2024/03/24 01:40:10;;;;;;;4.97;2.90;;;307.90;2073.60;;;;;;4992780;28;20040;-76
2024/03/24 01:42:36;;;;;;;4.72;2.80;;;307.90;2073.60;;;;;;5013957;28;20599;-73
2024/03/24 01:45:02;;;;;;;4.75;2.67;;;308.10;2073.60;;;;;;5020858;28;20424;-74
2024/03/24 01:47:29;;;;;;;10.45;5.80;;;307.90;2073.60;;;;;;5007534;28;20025;-75
2024/03/24 01:49:55;;;;;;;6.03;2.05;;;308.10;2048.00;;;;;;5020277;28;20022;-74
2024/03/24 01:52:21;;;;;;;6.40;3.05;;;308.10;2048.00;;;;;;5010712;28;20028;-74
2024/03/24 01:54:47;;;;;;;6.35;3.67;;;332.80;2073.60;;;;;;5023836;28;20112;-74
2024/03/24 01:57:13;;;;;;;6.57;2.55;;;332.80;2073.60;;;;;;5021357;28;20462;-75
2024/03/24 01:59:39;;;;;;;9.15;2.60;;;332.90;2073.60;;;;;;5028796;28;20025;-74
2024/03/24 02:02:05;;;;;;;10.02;5.63;;;332.90;2073.60;;;;;;5029643;28;20025;-76
2024/03/24 02:04:31;;;;;;;6.47;2.47;;;332.90;2073.60;;;;;;5027789;28;20059;-74
2024/03/24 02:06:57;;;;;;;4.05;2.38;;;332.90;2073.60;;;;;;5029274;28;20460;-75
2024/03/24 02:09:23;;;;;;;5.60;2.55;;;332.90;2073.60;;;;;;5017439;28;20101;-73
2024/03/24 02:11:49;;;;;;;7.03;2.20;;;332.90;2073.60;;;;;;4990616;28;20453;-76
2024/03/24 02:14:15;;;;;;;8.23;3.22;;;332.90;2073.60;;;;;;5015401;28;20028;-73
2024/03/24 02:16:41;;;;;;;7.65;4.50;;;332.90;2073.60;;;;;;5017187;28;20368;-74
2024/03/24 02:19:07;;;;;;;4.55;2.72;;;332.90;2073.60;;;;;;5029277;28;20018;-74
2024/03/24 02:21:33;;;;;;;7.38;3.65;;;332.90;2073.60;;;;;;5029398;28;20064;-75
2024/03/24 02:23:59;;;;;;;6.45;3.85;;;332.90;2073.60;;;;;;5004017;28;20044;-75
2024/03/24 02:26:25;;;;;;;4.88;2.85;;;332.90;2048.00;;;;;;5015840;28;20022;-74
2024/03/24 02:28:55;;;;;;;6.65;3.65;;;332.90;2073.60;;;;;;5028752;28;20028;-74
2024/03/24 02:31:21;;;;;;;5.75;2.88;;;332.90;2073.60;;;;;;5014343;28;20094;-75
2024/03/24 02:33:47;;;;;;;8.32;3.88;;;332.80;2099.20;;;;;;5010110;28;20026;-74
2024/03/24 02:36:13;;;;;;;14.27;4.95;;;308.10;2073.60;;;;;;5009884;28;20040;-75
2024/03/24 02:38:38;;;;;;;6.43;3.70;;;308.00;2073.60;;;;;;5009703;28;20022;-75
2024/03/24 02:41:04;;;;;;;8.00;3.30;;;308.00;2099.20;;;;;;5010420;28;20053;-75
2024/03/24 02:43:32;;;;;;;7.20;3.72;;;307.90;2099.20;;;;;;5009358;28;20092;-75
2024/03/24 02:45:58;;;;;;;6.43;3.47;;;307.90;2099.20;;;;;;5009713;28;20017;-75
2024/03/24 02:48:25;;;;;;;6.20;3.30;;;307.80;2099.20;;;;;;5009680;28;20442;-75
2024/03/24 02:50:51;;;;;;;7.32;4.15;;;307.80;2099.20;;;;;;5009829;28;20018;-76
2024/03/24 02:53:17;;;;;;;8.05;4.07;;;307.70;2099.20;;;;;;5009881;28;20026;-75
2024/03/24 02:55:49;;;;;;;11.13;6.93;;;307.70;2099.20;;;;;;5009745;28;20053;-75
2024/03/24 02:58:15;;;;;;;28.13;18.15;;;307.60;2124.80;;;;;;5009420;28;20025;-75
2024/03/24 03:00:42;;;;;;;26.40;13.90;;;307.60;2124.80;;;;;;5009224;28;20045;-74
2024/03/24 03:03:11;;;;;;;5.53;2.83;;;307.60;2099.20;;;;;;5009522;28;20037;-75
2024/03/24 03:05:37;;;;;;;25.13;13.43;;;307.80;2099.20;;;;;;5009927;28;20492;-75
2024/03/24 03:08:03;;;;;;;6.85;3.80;;;307.70;2099.20;;;;;;5009081;28;20113;-75
2024/03/24 03:10:30;;;;;;;5.60;3.92;;;307.70;2124.80;;;;;;5009370;28;20181;-75
2024/03/24 03:12:57;;;;;;;8.73;5.85;;;307.70;2124.80;;;;;;5009523;28;20080;-75
2024/03/24 03:15:27;;;;;;;12.30;7.05;;;307.70;2099.20;;;;;;5009401;28;20465;-75
2024/03/24 03:17:53;;;;;;;13.02;7.30;;;307.70;2124.80;;;;;;5009016;28;20103;-75
2024/03/24 03:20:19;;;;;;;30.77;18.33;;;307.70;2124.80;;;;;;5009409;28;20025;-76
2024/03/24 03:22:45;;;;;;;6.45;3.35;;;307.70;2099.20;;;;;;5009393;28;20022;-75
2024/03/24 03:25:12;;;;;;;8.50;4.50;;;307.70;2099.20;;;;;;5009099;28;20029;-75
2024/03/24 03:27:38;;;;;;;8.50;4.32;;;307.80;2099.20;;;;;;5009147;28;20033;-75
2024/03/24 03:30:05;;;;;;;10.25;5.82;;;307.80;2099.20;;;;;;5014891;28;20053;-75
2024/03/24 03:32:31;;;;;;;5.38;2.45;;;307.80;2099.20;;;;;;5009021;28;20124;-75
2024/03/24 03:34:57;;;;;;;5.38;2.72;;;307.90;2099.20;;;;;;5009588;28;20030;-75
2024/03/24 03:37:22;;;;;;;8.25;3.50;;;307.80;2124.80;;;;;;5008863;28;20030;-75
2024/03/24 03:39:48;;;;;;;8.27;2.72;;;307.80;2124.80;;;;;;5012318;28;20072;-76
2024/03/24 03:42:15;;;;;;;6.78;6.07;;;307.80;2124.80;;;;;;5013203;28;20014;-75
2024/03/24 03:44:42;;;;;;;4.85;2.03;;;307.70;2124.80;;;;;;5012873;28;20042;-76
2024/03/24 03:47:08;;;;;;;3.33;2.35;;;307.70;2124.80;;;;;;5013142;28;20026;-75
2024/03/24 03:49:34;;;;;;;5.40;3.17;;;307.70;2124.80;;;;;;5013291;28;20040;-74
2024/03/24 03:51:59;;;;;;;12.35;7.10;;;307.70;2150.40;;;;;;5012792;28;20022;-75
2024/03/24 03:54:26;;;;;;;4.68;2.38;;;307.70;2150.40;;;;;;5013185;28;20087;-74
2024/03/24 03:56:52;;;;;;;3.50;2.03;;;307.70;2150.40;;;;;;4994659;28;20026;-75
2024/03/24 03:59:18;;;;;;;45.22;21.00;;;307.60;2176.00;;;;;;5012986;28;20049;-76
2024/03/24 04:01:44;;;;;;;33.00;14.80;;;307.60;2176.00;;;;;;5012576;28;20018;-75
2024/03/24 04:04:09;;;;;;;7.68;3.95;;;307.60;2176.00;;;;;;5012699;28;20488;-75
2024/03/24 04:06:35;;;;;;;22.45;9.50;;;307.60;2150.40;;;;;;5012821;28;20018;-75
2024/03/24 04:09:04;;;;;;;8.02;2.83;;;307.60;2176.00;;;;;;5012720;28;20029;-75
2024/03/24 04:11:30;;;;;;;12.05;3.63;;;307.60;2176.00;;;;;;5012543;28;20026;-75
2024/03/24 04:13:56;;;;;;;26.33;13.40;;;307.60;2176.00;;;;;;5012784;28;20026;-75
2024/03/24 04:16:22;;;;;;;6.57;4.10;;;307.50;2176.00;;;;;;5012562;28;20435;-75
2024/03/24 04:18:48;;;;;;;3.72;2.10;;;307.50;2176.00;;;;;;5012707;28;20523;-75
2024/03/24 04:21:15;;;;;;;3.80;2.20;;;307.60;2176.00;;;;;;5012890;28;20025;-74
2024/03/24 04:23:40;;;;;;;6.45;3.13;;;307.50;2176.00;;;;;;5012506;28;20495;-76
2024/03/24 04:26:06;;;;;;;4.28;2.90;;;307.50;2176.00;;;;;;5012454;28;20022;-75
2024/03/24 04:28:32;;;;;;;5.45;2.90;;;307.50;2201.60;;;;;;5012435;28;20026;-75
2024/03/24 04:30:59;;;;;;;4.13;2.20;;;307.40;2201.60;;;;;;5011897;28;20065;-75
2024/03/24 04:33:25;;;;;;;6.93;2.95;;;307.50;2201.60;;;;;;5012365;28;20064;-75
2024/03/24 04:35:51;;;;;;;5.28;2.80;;;307.50;2201.60;;;;;;5012197;28;20040;-75
2024/03/24 04:38:18;;;;;;;4.53;2.47;;;307.50;2201.60;;;;;;5012156;28;20026;-75
2024/03/24 04:40:44;;;;;;;5.32;2.55;;;307.40;2227.20;;;;;;5012301;28;20014;-75
2024/03/24 04:43:13;;;;;;;12.27;5.15;;;307.30;2227.20;;;;;;5011616;28;20021;-75
2024/03/24 04:45:42;;;;;;;9.30;5.35;;;307.30;2252.80;;;;;;5011743;28;20026;-75
2024/03/24 04:48:08;;;;;;;3.03;2.15;;;307.30;2252.80;;;;;;5011927;28;20487;-76
2024/03/24 04:50:35;;;;;;;12.43;6.38;;;307.30;2252.80;;;;;;5011481;28;20129;-75
2024/03/24 04:53:00;;;;;;;5.38;3.35;;;307.20;2252.80;;;;;;5011858;28;20018;-75
2024/03/24 04:55:28;;;;;;;4.85;3.00;;;307.20;2252.80;;;;;;5012058;28;20033;-75
2024/03/24 04:57:53;;;;;;;12.32;7.82;;;307.30;2252.80;;;;;;5012028;28;20113;-75
2024/03/24 05:00:19;;;;;;;9.73;6.13;;;307.30;2252.80;;;;;;5011061;28;20152;-76
2024/03/24 05:02:46;;;;;;;3.80;2.38;;;307.30;2252.80;;;;;;5012029;28;20025;-75
2024/03/24 05:05:12;;;;;;;7.43;3.97;;;307.30;2252.80;;;;;;5011447;28;20037;-75
2024/03/24 05:07:38;;;;;;;4.47;2.50;;;307.30;2252.80;;;;;;5011836;28;20205;-75
2024/03/24 05:10:04;;;;;;;3.60;2.28;;;307.30;2252.80;;;;;;5011557;28;20026;-76
2024/03/24 05:12:31;;;;;;;4.05;1.92;;;282.50;2227.20;;;;;;5011370;28;20026;-76
2024/03/24 05:14:57;;;;;;;4.97;2.97;;;282.50;2227.20;;;;;;5011511;28;20130;-76
2024/03/24 05:17:23;;;;;;;9.52;4.88;;;282.50;2227.20;;;;;;5011341;28;20453;-75
2024/03/24 05:19:49;;;;;;;7.80;4.63;;;282.50;2227.20;;;;;;5010975;28;20033;-76
2024/03/24 05:22:15;;;;;;;7.00;4.45;;;282.50;2201.60;;;;;;5011455;28;20022;-75
2024/03/24 05:24:41;;;;;;;5.15;3.10;;;282.50;2201.60;;;;;;4993216;28;20373;-75
2024/03/24 05:27:07;;;;;;;6.93;4.03;;;282.40;2201.60;;;;;;5011573;28;20076;-76
2024/03/24 05:29:33;;;;;;;7.13;5.18;;;282.40;2201.60;;;;;;5010836;28;20061;-76
2024/03/24 05:32:02;;;;;;;10.23;6.13;;;282.30;2201.60;;;;;;5010877;28;20085;-76
2024/03/24 05:34:28;;;;;;;8.40;5.40;;;282.20;2201.60;;;;;;5011218;28;20034;-76
2024/03/24 05:36:54;;;;;;;15.60;7.88;;;282.30;2176.00;;;;;;5011600;28;20026;-76
2024/03/24 05:39:20;;;;;;;9.55;5.05;;;282.30;2176.00;;;;;;5011194;28;20177;-76
2024/03/24 05:41:50;;;;;;;6.07;4.57;;;282.20;2227.20;;;;;;5011063;28;20073;-75
2024/03/24 05:44:16;;;;;;;8.38;5.65;;;282.20;2201.60;;;;;;4998004;28;20432;-76
2024/03/24 05:46:43;;;;;;;8.48;4.85;;;282.00;2227.20;;;;;;5010805;28;20109;-75
2024/03/24 05:49:10;;;;;;;6.18;3.80;;;282.20;2201.60;;;;;;5011332;28;20765;-74
2024/03/24 05:51:37;;;;;;;7.45;4.50;;;282.30;2201.60;;;;;;5010911;28;20014;-75
2024/03/24 05:54:03;;;;;;;7.10;4.57;;;282.20;2201.60;;;;;;5010354;28;20026;-74
2024/03/24 05:56:29;;;;;;;10.98;6.90;;;282.20;2201.60;;;;;;5010713;28;20022;-75
2024/03/24 05:58:55;;;;;;;433.13;237.43;;;282.30;2201.60;;;;;;5011079;28;20013;-74
2024/03/24 06:01:20;;;;;;;822.03;482.55;;;282.30;2201.60;;;;;;5009439;28;20172;-75
2024/03/24 06:03:46;;;;;;;627.22;387.60;;;282.20;2201.60;;;;;;5010792;28;20113;-74
2024/03/24 06:06:12;;;;;;;93.63;49.10;;;282.20;2201.60;;;;;;5010326;28;20483;-74
2024/03/24 06:08:38;;;;;;;62.90;38.85;;;282.50;2201.60;;;;;;5010765;28;20038;-74
2024/03/24 06:11:05;;;;;;;38.38;23.85;;;282.20;2227.20;;;;;;5010347;28;20022;-74
2024/03/24 06:13:32;;;;;;;8.63;6.03;;;282.10;2227.20;;;;;;5010281;28;20093;-74
2024/03/24 06:16:00;;;;;;;156.00;115.88;;;282.10;2227.20;;;;;;5010046;28;20029;-76
2024/03/24 06:18:26;;;;;;;68.20;52.05;;;282.20;2252.80;;;;;;5010518;28;20013;-75
2024/03/24 06:20:53;;;;;;;39.95;30.17;;;282.20;2252.80;;;;;;5009927;28;20039;-73
2024/03/24 06:23:20;;;;;;;23.60;19.48;;;282.10;2252.80;;;;;;5008921;28;20022;-74
2024/03/24 06:25:47;;;;;;;6.22;4.72;;;282.10;2278.40;;;;;;5007406;28;20026;-75
2024/03/24 06:28:13;;;;;;;10.10;8.05;;;282.00;2278.40;;;;;;5013044;28;20093;-74
2024/03/24 06:30:40;;;;;;;10.65;8.10;;;282.00;2278.40;;;;;;5005988;28;20097;-75
2024/03/24 06:33:06;;;;;;;9.05;6.35;;;282.50;2278.40;;;;;;5011046;28;20029;-74
2024/03/24 06:35:32;;;;;;;8.05;5.72;;;282.10;2278.40;;;;;;5005374;28;20353;-75
2024/03/24 06:37:58;;;;;;;33.60;5.97;;;282.10;2278.40;;;;;;5006353;28;20492;-75
2024/03/24 06:40:25;;;;;;;10.32;5.13;;;282.00;2278.40;;;;;;5020593;28;20372;-74
2024/03/24 06:43:02;;;;;;;9.00;5.72;;;282.00;2278.40;;;;;;4999101;28;20022;-74
2024/03/24 06:45:30;;;;;;;18.58;14.50;;;282.00;2278.40;;;;;;5000271;28;20072;-75
2024/03/24 06:47:59;;;;;;;10.80;8.70;;;281.70;2278.40;;;;;;5028941;28;20055;-75
2024/03/24 06:50:25;;;;;;;12.98;10.27;;;281.70;2278.40;;;;;;5006000;28;20015;-74
2024/03/24 06:52:52;;;;;;;8.00;6.13;;;281.60;2278.40;;;;;;5014010;28;20482;-75
2024/03/24 06:55:21;;;;;;;51.42;38.28;;;281.70;2278.40;;;;;;5010590;28;20085;-76
2024/03/24 06:57:46;;;;;;;13.68;8.50;;;281.70;2278.40;;;;;;5009833;28;20022;-75
2024/03/24 07:00:17;;;;;;;9.85;5.82;;;281.70;2278.40;;;;;;5009327;28;20447;-75
2024/03/24 07:02:43;;;;;;;8.63;6.05;;;282.00;2278.40;;;;;;5009365;28;20026;-75
2024/03/24 07:05:09;;;;;;;5.43;3.53;;;281.60;2278.40;;;;;;5009159;28;20106;-75
2024/03/24 07:07:36;;;;;;;7.07;3.45;;;256.90;2252.80;;;;;;5009451;28;20030;-76
2024/03/24 07:10:03;;;;;;;4.30;2.83;;;281.60;2278.40;;;;;;5009511;28;20097;-74
2024/03/24 07:12:29;;;;;;;7.35;4.53;;;281.70;2278.40;;;;;;5009072;28;20032;-75
2024/03/24 07:14:55;;;;;;;20.88;17.70;;;281.70;2278.40;;;;;;5009621;28;20022;-77
2024/03/24 07:17:21;;;;;;;8.00;5.85;;;281.70;2278.40;;;;;;5008958;28;20032;-75
2024/03/24 07:19:47;;;;;;;36.38;27.98;;;281.60;2278.40;;;;;;5009674;28;20030;-75
2024/03/24 07:22:13;;;;;;;7.72;5.60;;;281.70;2278.40;;;;;;5017382;28;20068;-75
2024/03/24 07:24:38;;;;;;;5.97;3.78;;;256.90;2252.80;;;;;;5004662;28;20034;-75
2024/03/24 07:27:04;;;;;;;11.02;7.85;;;256.90;2252.80;;;;;;5000619;28;20037;-75
2024/03/24 07:29:30;;;;;;;6.93;4.43;;;256.90;2252.80;;;;;;5010790;28;20045;-74
2024/03/24 07:31:56;;;;;;;5.53;2.95;;;256.40;2252.80;;;;;;5009382;28;20044;-76
2024/03/24 07:34:22;;;;;;;6.47;5.88;;;256.30;2252.80;;;;;;5009052;28;20440;-75
2024/03/24 07:36:48;;;;;;;8.13;7.32;;;256.40;2252.80;;;;;;5009361;28;20022;-75
2024/03/24 07:39:14;;;;;;;8.93;6.18;;;256.20;2252.80;;;;;;5009187;28;20034;-75
2024/03/24 07:41:39;;;;;;;12.80;7.55;;;256.20;2252.80;;;;;;5008969;28;20101;-75
2024/03/24 07:44:05;;;;;;;20.02;11.43;;;256.00;2252.80;;;;;;5008994;28;20037;-78
2024/03/24 07:46:31;;;;;;;13.23;8.38;;;256.10;2252.80;;;;;;5009069;28;20046;-75
2024/03/24 07:48:57;;;;;;;16.17;10.48;;;256.00;2252.80;;;;;;5007351;28;20079;-75
2024/03/24 07:51:23;;;;;;;27.13;19.15;;;231.30;2252.80;;;;;;5009853;28;20026;-75
2024/03/24 07:53:48;;;;;;;101.10;68.70;;;231.30;2252.80;;;;;;5000250;28;20030;-74
2024/03/24 07:56:15;;;;;;;43.40;25.63;;;231.30;2252.80;;;;;;5019971;28;20018;-74
2024/03/24 07:58:43;;;;;;;58.72;34.08;;;231.20;2252.80;;;;;;4986654;28;20366;-74
2024/03/24 08:01:09;;;;;;;37.28;23.92;;;231.20;2252.80;;;;;;5005669;28;20018;-75
2024/03/24 08:03:35;;;;;;;48.05;33.25;;;231.30;2252.80;;;;;;5011280;28;20053;-75
2024/03/24 08:06:01;;;;;;;40.42;27.00;;;231.30;2252.80;;;;;;5015336;28;20033;-74
2024/03/24 08:08:27;;;;;;;33.28;25.65;;;231.30;2252.80;;;;;;5009077;28;20145;-75
2024/03/24 08:10:54;;;;;;;18.48;11.73;;;231.20;2252.80;;;;;;5009067;28;20030;-76
2024/03/24 08:13:20;;;;;;;28.83;20.55;;;231.20;2252.80;;;;;;5011637;28;20074;-75
2024/03/24 08:15:45;;;;;;;22.80;15.90;;;231.10;2252.80;;;;;;5012190;28;20030;-75
2024/03/24 08:18:14;;;;;;;46.35;30.15;;;231.10;2252.80;;;;;;5008670;28;20453;-74
2024/03/24 08:20:47;;;;;;;68.63;40.88;;;231.00;2252.80;;;;;;4991041;28;20488;-74
2024/03/24 08:23:13;;;;;;;82.70;47.15;;;230.90;2252.80;;;;;;5009086;28;20022;-75
2024/03/24 08:25:42;;;;;;;58.03;35.55;;;230.90;2252.80;;;;;;5010871;28;20022;-74
2024/03/24 08:28:09;;;;;;;15.50;11.20;;;230.90;2252.80;;;;;;5003245;28;20585;-75
2024/03/24 08:30:35;;;;;;;29.58;23.20;;;230.90;2252.80;;;;;;5014050;28;20056;-75
2024/03/24 08:33:01;;;;;;;20.05;12.95;;;230.90;2252.80;;;;;;5004224;28;20034;-75
2024/03/24 08:35:27;;;;;;;10.82;7.15;;;230.80;2252.80;;;;;;5012770;28;20711;-75
2024/03/24 08:37:53;;;;;;;17.20;13.57;;;230.70;2252.80;;;;;;5015966;28;20034;-74
2024/03/24 08:40:19;;;;;;;17.88;14.02;;;230.80;2252.80;;;;;;5001752;28;20113;-74
2024/03/24 08:42:45;;;;;;;11.73;7.30;;;230.90;2252.80;;;;;;5001815;28;20368;-73
2024/03/24 08:45:11;;;;;;;14.20;9.60;;;230.80;2252.80;;;;;;5011747;28;20041;-75
2024/03/24 08:47:37;;;;;;;8.90;5.55;;;230.80;2252.80;;;;;;4999117;28;20061;-75
2024/03/24 08:50:03;;;;;;;10.52;6.88;;;230.70;2252.80;;;;;;5012028;28;20060;-75
2024/03/24 08:52:29;;;;;;;8.23;4.40;;;230.80;2252.80;;;;;;5012067;28;20018;-73
2024/03/24 08:54:56;;;;;;;21.02;15.38;;;230.70;2252.80;;;;;;5012159;28;20137;-75
2024/03/24 08:57:22;;;;;;;13.00;9.35;;;230.80;2252.80;;;;;;5011911;28;20080;-75
2024/03/24 08:59:48;;;;;;;17.45;12.40;;;230.80;2252.80;;;;;;5011757;28;20486;-76
2024/03/24 09:02:14;;;;;;;18.48;11.68;;;230.90;2252.80;;;;;;5011889;28;20040;-75
2024/03/24 09:04:39;;;;;;;23.70;20.08;;;230.90;2252.80;;;;;;5011312;28;20038;-76
2024/03/24 09:07:05;;;;;;;8.93;4.82;;;230.90;2252.80;;;;;;5011965;28;20037;-75
2024/03/24 09:09:31;;;;;;;8.88;4.05;;;231.00;2252.80;;;;;;5000551;28;20030;-76
2024/03/24 09:11:57;;;;;;;7.50;5.57;;;231.10;2252.80;;;;;;5014784;28;20029;-75
2024/03/24 09:14:23;;;;;;;6.40;4.40;;;231.10;2252.80;;;;;;5015817;28;20026;-75
2024/03/24 09:16:49;;;;;;;5.57;3.25;;;231.00;2252.80;;;;;;5008715;28;20022;-76
2024/03/24 09:19:18;;;;;;;5.57;2.90;;;231.00;2252.80;;;;;;5006913;28;20033;-76
2024/03/24 09:21:44;;;;;;;5.70;3.22;;;230.90;2252.80;;;;;;5013673;28;20519;-76
2024/03/24 09:24:09;;;;;;;6.53;3.72;;;230.90;2252.80;;;;;;5018645;28;20069;-76
2024/03/24 09:26:36;;;;;;;16.73;10.10;;;230.80;2252.80;;;;;;5021786;28;20057;-76
2024/03/24 09:29:02;;;;;;;4.57;2.70;;;230.80;2252.80;;;;;;5021843;28;20456;-75
2024/03/24 09:31:28;;;;;;;10.50;4.72;;;230.70;2252.80;;;;;;4997917;28;20045;-76
2024/03/24 09:33:54;;;;;;;11.07;7.78;;;230.80;2252.80;;;;;;5012449;28;20034;-76
2024/03/24 09:36:19;;;;;;;35.08;20.42;;;230.80;2252.80;;;;;;5007951;28;20111;-76
2024/03/24 09:38:47;;;;;;;13.48;6.32;;;230.80;2252.80;;;;;;5011094;28;20054;-76
2024/03/24 09:41:12;;;;;;;6.20;3.45;;;230.80;2252.80;;;;;;5010259;28;20022;-75
2024/03/24 09:43:38;;;;;;;22.60;11.57;;;230.90;2252.80;;;;;;5010580;28;20018;-76
2024/03/24 09:46:05;;;;;;;5.78;4.50;;;230.90;2252.80;;;;;;5010391;28;20049;-76
2024/03/24 09:48:33;;;;;;;4.07;2.30;;;230.90;2252.80;;;;;;5010212;28;20014;-76
2024/03/24 09:51:01;;;;;;;17.15;13.88;;;230.80;2252.80;;;;;;5010398;28;20032;-76
2024/03/24 09:53:30;;;;;;;3.90;1.83;;;230.90;2252.80;;;;;;5019019;28;20026;-76
2024/03/24 09:55:57;;;;;;;6.20;5.15;;;230.90;2252.80;;;;;;5006810;28;20030;-76
2024/03/24 09:58:24;;;;;;;3.90;3.33;;;231.00;2252.80;;;;;;5022942;28;20104;-75
2024/03/24 10:00:50;;;;;;;5.25;2.63;;;231.00;2252.80;;;;;;5014234;28;20035;-78
2024/03/24 10:03:16;;;;;;;121.30;63.75;;;230.80;2252.80;;;;;;5014555;28;20030;-76
2024/03/24 10:05:42;;;;;;;10.57;5.47;;;230.80;2252.80;;;;;;5009946;28;20105;-76
2024/03/24 10:08:10;;;;;;;3.40;1.88;;;230.70;2252.80;;;;;;5010244;28;20090;-75
2024/03/24 10:10:36;;;;;;;5.07;2.67;;;230.70;2252.80;;;;;;5010296;28;20432;-76
2024/03/24 10:13:03;;;;;;;4.00;2.25;;;230.70;2252.80;;;;;;5010069;28;20082;-76
2024/03/24 10:15:29;;;;;;;11.30;6.13;;;230.70;2252.80;;;;;;5009586;28;20030;-74
2024/03/24 10:18:24;;;;;;;56.65;28.92;;;231.10;2252.80;;;;;;5009904;28;20029;-76
2024/03/24 10:20:50;;;;;;;10.82;6.88;;;230.80;2252.80;;;;;;4990772;28;20034;-76
2024/03/24 10:23:16;;;;;;;5.70;1.63;;;230.60;2252.80;;;;;;5010006;28;20029;-77
2024/03/24 10:25:41;;;;;;;21.50;13.73;;;230.70;2252.80;;;;;;5009146;28;20110;-76
2024/03/24 10:28:09;;;;;;;10.18;6.43;;;230.80;2252.80;;;;;;5013528;28;20373;-77
2024/03/24 10:30:35;;;;;;;86.20;43.58;;;230.60;2252.80;;;;;;5009721;28;20448;-76
2024/03/24 10:33:02;;;;;;;9.30;6.05;;;230.50;2252.80;;;;;;5009270;28;20134;-76
2024/03/24 10:35:30;;;;;;;22.58;10.07;;;230.50;2252.80;;;;;;5009952;28;20038;-70
2024/03/24 10:38:00;;;;;;;131.30;62.10;;;205.70;2252.80;;;;;;5009772;28;20026;-72
2024/03/24 10:40:26;;;;;;;10.40;4.65;;;205.70;2252.80;;;;;;5009696;28;20401;-72
2024/03/24 10:42:52;;;;;;;4.53;2.95;;;205.50;2252.80;;;;;;5021845;28;20083;-74
2024/03/24 10:45:28;;;;;;;6.75;3.97;;;205.40;2252.80;;;;;;5012143;28;20085;-72
2024/03/24 10:47:59;;;;;;;225.73;101.63;;;205.50;2252.80;;;;;;5008583;28;20104;-72
2024/03/24 10:50:25;;;;;;;73.40;34.40;;;205.50;2252.80;;;;;;5009644;28;20022;-75
2024/03/24 10:52:55;;;;;;;3.90;2.53;;;205.40;2252.80;;;;;;5012929;28;20025;-70
2024/03/24 10:55:23;;;;;;;6.13;3.13;;;205.10;2252.80;;;;;;4992548;28;20037;-76
2024/03/24 10:57:49;;;;;;;49.72;21.38;;;205.20;2252.80;;;;;;4998070;28;20022;-75
2024/03/24 11:00:16;;;;;;;21.75;11.73;;;205.30;2252.80;;;;;;5009121;28;20112;-72
2024/03/24 11:02:43;;;;;;;43.35;18.67;;;205.70;2252.80;;;;;;5008283;28;20030;-76
2024/03/24 11:05:10;;;;;;;4.38;2.42;;;205.40;2252.80;;;;;;4996438;28;20070;-73
2024/03/24 11:07:39;;;;;;;24.00;8.80;;;205.30;2252.80;;;;;;4992899;28;20040;-73
2024/03/24 11:10:06;;;;;;;8.25;5.35;;;205.20;2252.80;;;;;;5009088;28;20030;-72
2024/03/24 11:12:36;;;;;;;13.48;7.20;;;205.20;2252.80;;;;;;5008877;28;20033;-71
2024/03/24 11:15:05;;;;;;;38.65;16.27;;;205.20;2252.80;;;;;;5004387;28;20124;-71
2024/03/24 11:17:31;;;;;;;6.20;2.55;;;205.10;2252.80;;;;;;4995841;28;20017;-71
2024/03/24 11:20:03;;;;;;;4.43;2.00;;;205.30;2252.80;;;;;;5002961;28;20105;-72
2024/03/24 11:22:48;;;;;;;65.50;33.50;;;205.40;2252.80;;;;;;5015007;28;20025;-71
2024/03/24 11:25:17;;;;;;;20.05;9.85;;;205.40;2252.80;;;;;;5005644;28;20038;-74
2024/03/24 11:27:44;;;;;;;20.98;12.35;;;205.40;2252.80;;;;;;5012873;28;20084;-72
2024/03/24 11:30:14;;;;;;;8.52;7.57;;;205.50;2252.80;;;;;;5006914;28;20033;-74
2024/03/24 11:32:50;;;;;;;3.13;1.70;;;205.40;2252.80;;;;;;5012696;28;20353;-75
2024/03/24 11:35:26;;;;;;;4.25;2.72;;;205.30;2252.80;;;;;;5017747;28;20034;-70
2024/03/24 11:37:53;;;;;;;2.78;1.80;;;205.40;2252.80;;;;;;5013776;28;20029;-73
2024/03/24 11:40:20;;;;;;;25.27;15.25;;;205.40;2252.80;;;;;;5012294;28;20030;-71
2024/03/24 11:42:46;;;;;;;8.82;4.93;;;205.60;2252.80;;;;;;5010006;28;20109;-72
2024/03/24 11:45:31;;;;;;;136.68;59.08;;;205.70;2252.80;;;;;;4998504;28;20086;-69
2024/03/24 11:48:19;;;;;;;37.60;17.50;;;205.60;2252.80;;;;;;4989286;28;20027;-72
2024/03/24 11:50:45;;;;;;;52.53;23.60;;;205.40;2252.80;;;;;;4992987;28;20428;-73
2024/03/24 11:53:13;;;;;;;9.35;4.80;;;205.30;2252.80;;;;;;5006040;28;20436;-70
2024/03/24 11:55:40;;;;;;;347.60;132.80;;;205.30;2252.80;;;;;;5008542;28;20078;-71
2024/03/24 11:58:06;;;;;;;640.53;295.83;;;205.30;2252.80;;;;;;5009161;28;20048;-74
2024/03/24 12:00:32;;;;;;;344.23;134.90;;;205.30;2252.80;;;;;;5010698;28;20022;-71
2024/03/24 12:02:59;;;;;;;462.50;186.63;;;205.30;2252.80;;;;;;5012425;28;20030;-70
2024/03/24 12:05:25;;;;;;;61.58;29.63;;;205.40;2252.80;;;;;;5012497;28;20085;-70